createdAt,value
2018-07-27T00:00:07.900Z,18.5
2018-07-27T00:01:07.802Z,18.5
2018-07-27T00:02:07.708Z,18.4
2018-07-27T00:03:08.058Z,18.4
2018-07-27T00:04:07.995Z,18.4
2018-07-27T00:05:07.907Z,18.4
2018-07-27T00:06:07.811Z,18.4
2018-07-27T00:07:07.744Z,18.3
2018-07-27T00:08:07.656Z,18.3
2018-07-27T00:09:07.556Z,18.3
2018-07-27T00:10:10.501Z,18.3
2018-07-27T00:11:10.417Z,18.3
2018-07-27T00:12:10.313Z,18.3
2018-07-27T00:13:10.648Z,18.3
2018-07-27T00:14:10.549Z,18.2
2018-07-27T00:15:10.478Z,18.2
2018-07-27T00:16:10.385Z,18.2
2018-07-27T00:17:10.289Z,18.2
2018-07-27T00:18:10.197Z,18.2
2018-07-27T00:19:10.115Z,18.2
2018-07-27T00:20:10.046Z,18.2
2018-07-27T00:21:09.954Z,18.1
2018-07-27T00:22:09.860Z,18.2
2018-07-27T00:23:10.263Z,18.2
2018-07-27T00:24:10.170Z,18.2
2018-07-27T00:25:10.080Z,18.1
2018-07-27T00:26:09.997Z,18.1
2018-07-27T00:27:09.908Z,18.1
2018-07-27T00:28:09.819Z,18.1
2018-07-27T00:29:09.711Z,18
2018-07-27T00:30:09.619Z,18
2018-07-27T00:31:09.532Z,18.1
2018-07-27T00:32:09.434Z,18.1
2018-07-27T00:33:09.774Z,18
2018-07-27T00:34:09.688Z,18
2018-07-27T00:35:10.612Z,17.9
2018-07-27T00:36:10.538Z,18
2018-07-27T00:37:10.431Z,18
2018-07-27T00:38:10.381Z,17.9
2018-07-27T00:39:10.272Z,17.9
2018-07-27T00:40:10.186Z,17.9
2018-07-27T00:41:10.101Z,17.9
2018-07-27T00:42:10.007Z,17.9
2018-07-27T00:43:10.341Z,17.8
2018-07-27T00:44:10.247Z,17.8
2018-07-27T00:45:10.168Z,17.8
2018-07-27T00:46:10.079Z,17.8
2018-07-27T00:47:10.000Z,17.8
2018-07-27T00:48:09.893Z,17.9
2018-07-27T00:49:09.798Z,17.9
2018-07-27T00:50:09.714Z,17.9
2018-07-27T00:51:09.612Z,17.9
2018-07-27T00:52:09.551Z,18
2018-07-27T00:53:09.898Z,17.9
2018-07-27T00:54:09.811Z,17.8
2018-07-27T00:55:09.712Z,17.9
2018-07-27T00:56:09.615Z,17.9
2018-07-27T00:57:09.531Z,17.9
2018-07-27T00:58:09.450Z,17.9
2018-07-27T00:59:09.350Z,17.9
2018-07-27T01:00:09.250Z,17.8
2018-07-27T01:01:09.155Z,17.9
2018-07-27T01:02:09.075Z,17.9
2018-07-27T01:03:09.463Z,17.9
2018-07-27T01:04:09.371Z,17.8
2018-07-27T01:05:09.280Z,17.8
2018-07-27T01:06:09.191Z,17.7
2018-07-27T01:07:09.097Z,17.8
2018-07-27T01:08:09.021Z,17.7
2018-07-27T01:09:08.935Z,17.7
2018-07-27T01:10:08.855Z,17.7
2018-07-27T01:11:08.763Z,17.8
2018-07-27T01:12:08.683Z,17.9
2018-07-27T01:13:09.040Z,17.9
2018-07-27T01:14:08.939Z,17.9
2018-07-27T01:15:08.845Z,17.8
2018-07-27T01:16:08.743Z,17.9
2018-07-27T01:17:08.656Z,17.9
2018-07-27T01:18:08.596Z,17.8
2018-07-27T01:19:08.496Z,17.8
2018-07-27T01:20:10.963Z,17.7
2018-07-27T01:21:10.853Z,17.7
2018-07-27T01:22:10.750Z,17.8
2018-07-27T01:23:11.118Z,17.7
2018-07-27T01:24:11.019Z,17.7
2018-07-27T01:25:10.930Z,17.6
2018-07-27T01:26:10.837Z,17.6
2018-07-27T01:27:10.738Z,17.6
2018-07-27T01:28:10.641Z,17.6
2018-07-27T01:29:10.548Z,17.5
2018-07-27T01:30:10.448Z,17.5
2018-07-27T01:31:10.339Z,17.4
2018-07-27T01:32:10.239Z,17.4
2018-07-27T01:33:11.613Z,17.3
2018-07-27T01:34:11.523Z,17.3
2018-07-27T01:35:11.429Z,17.3
2018-07-27T01:36:11.344Z,17.2
2018-07-27T01:37:11.235Z,17.3
2018-07-27T01:38:11.134Z,17.4
2018-07-27T01:39:11.051Z,17.5
2018-07-27T01:40:10.984Z,17.4
2018-07-27T01:41:10.891Z,17.5
2018-07-27T01:42:10.803Z,17.5
2018-07-27T01:43:11.119Z,17.4
2018-07-27T01:44:11.039Z,17.4
2018-07-27T01:45:10.950Z,17.4
2018-07-27T01:46:10.863Z,17.4
2018-07-27T01:47:10.759Z,17.4
2018-07-27T01:48:10.653Z,17.4
2018-07-27T01:49:10.556Z,17.3
2018-07-27T01:50:10.496Z,17.4
2018-07-27T01:51:10.398Z,17.4
2018-07-27T01:52:10.303Z,17.4
2018-07-27T01:53:10.670Z,17.4
2018-07-27T01:54:10.584Z,17.4
2018-07-27T01:55:10.508Z,17.3
2018-07-27T01:56:10.404Z,17.3
2018-07-27T01:57:10.331Z,17.3
2018-07-27T01:58:10.240Z,17.3
2018-07-27T01:59:10.147Z,17.3
2018-07-27T02:00:10.062Z,17.3
2018-07-27T02:01:10.050Z,17.3
2018-07-27T02:02:09.953Z,17.1
2018-07-27T02:03:10.298Z,17.1
2018-07-27T02:04:10.218Z,17.1
2018-07-27T02:05:10.124Z,17.1
2018-07-27T02:06:10.025Z,17.1
2018-07-27T02:07:09.959Z,17.1
2018-07-27T02:08:09.867Z,17.2
2018-07-27T02:09:09.790Z,17.1
2018-07-27T02:10:09.680Z,17.1
2018-07-27T02:11:09.583Z,17.1
2018-07-27T02:12:09.519Z,17.1
2018-07-27T02:13:10.212Z,17.1
2018-07-27T02:14:10.132Z,17.1
2018-07-27T02:15:10.045Z,17
2018-07-27T02:16:09.944Z,17
2018-07-27T02:17:09.875Z,17
2018-07-27T02:18:09.791Z,17
2018-07-27T02:19:09.697Z,17.1
2018-07-27T02:20:09.603Z,17
2018-07-27T02:21:09.493Z,17
2018-07-27T02:22:09.434Z,17
2018-07-27T02:23:09.763Z,16.9
2018-07-27T02:24:09.665Z,16.9
2018-07-27T02:25:09.575Z,16.8
2018-07-27T02:26:09.488Z,16.8
2018-07-27T02:27:09.377Z,16.8
2018-07-27T02:28:11.863Z,16.9
2018-07-27T02:29:11.766Z,16.9
2018-07-27T02:30:11.669Z,16.8
2018-07-27T02:31:11.621Z,16.9
2018-07-27T02:32:11.568Z,16.8
2018-07-27T02:33:11.981Z,16.7
2018-07-27T02:34:11.886Z,16.7
2018-07-27T02:35:11.874Z,16.6
2018-07-27T02:36:11.829Z,16.6
2018-07-27T02:37:11.749Z,16.6
2018-07-27T02:38:11.684Z,16.5
2018-07-27T02:39:11.596Z,16.5
2018-07-27T02:40:11.493Z,16.5
2018-07-27T02:41:11.432Z,16.5
2018-07-27T02:42:11.347Z,16.5
2018-07-27T02:43:11.713Z,16.5
2018-07-27T02:44:11.663Z,16.5
2018-07-27T02:45:11.585Z,16.4
2018-07-27T02:46:11.503Z,16.4
2018-07-27T02:47:11.404Z,16.4
2018-07-27T02:48:11.315Z,16.3
2018-07-27T02:49:11.241Z,16.4
2018-07-27T02:50:11.153Z,16.3
2018-07-27T02:51:11.173Z,16.3
2018-07-27T02:52:11.196Z,16.3
2018-07-27T02:53:11.541Z,16.2
2018-07-27T02:54:11.465Z,16.2
2018-07-27T02:55:11.376Z,16.2
2018-07-27T02:56:11.289Z,16.2
2018-07-27T02:57:11.207Z,16.2
2018-07-27T02:58:11.124Z,16.1
2018-07-27T02:59:11.032Z,16.1
2018-07-27T03:00:10.951Z,16
2018-07-27T03:01:10.876Z,16
2018-07-27T03:02:10.798Z,16
2018-07-27T03:03:11.154Z,15.9
2018-07-27T03:04:11.062Z,15.9
2018-07-27T03:05:10.997Z,15.9
2018-07-27T03:06:10.896Z,15.9
2018-07-27T03:07:10.813Z,15.9
2018-07-27T03:08:10.737Z,15.9
2018-07-27T03:09:10.702Z,15.8
2018-07-27T03:10:10.635Z,15.8
2018-07-27T03:11:10.583Z,15.8
2018-07-27T03:12:10.504Z,15.8
2018-07-27T03:13:10.878Z,15.8
2018-07-27T03:14:10.790Z,15.8
2018-07-27T03:15:10.722Z,15.8
2018-07-27T03:16:10.648Z,15.8
2018-07-27T03:17:10.567Z,15.9
2018-07-27T03:18:10.493Z,16
2018-07-27T03:19:10.400Z,16
2018-07-27T03:20:10.310Z,16
2018-07-27T03:21:10.249Z,16.1
2018-07-27T03:22:10.174Z,16.1
2018-07-27T03:23:10.533Z,16
2018-07-27T03:24:10.441Z,16.2
2018-07-27T03:25:10.362Z,16.2
2018-07-27T03:26:10.287Z,16.2
2018-07-27T03:27:10.247Z,16.3
2018-07-27T03:28:10.174Z,16.2
2018-07-27T03:29:10.146Z,16.1
2018-07-27T03:30:10.083Z,16.1
2018-07-27T03:31:09.987Z,16.2
2018-07-27T03:32:12.509Z,16.2
2018-07-27T03:33:12.906Z,16.2
2018-07-27T03:34:12.819Z,16.2
2018-07-27T03:35:12.725Z,16.2
2018-07-27T03:36:12.652Z,16.2
2018-07-27T03:37:12.556Z,16.2
2018-07-27T03:38:12.600Z,16.1
2018-07-27T03:39:12.745Z,16.2
2018-07-27T03:40:12.646Z,16.2
2018-07-27T03:41:12.557Z,16.2
2018-07-27T03:42:12.689Z,16.2
2018-07-27T03:43:13.493Z,16.2
2018-07-27T03:44:13.401Z,16.1
2018-07-27T03:45:13.294Z,16.1
2018-07-27T03:46:13.216Z,16.1
2018-07-27T03:47:13.131Z,16.1
2018-07-27T03:48:13.036Z,16.2
2018-07-27T03:49:12.934Z,16.3
2018-07-27T03:50:12.834Z,16.3
2018-07-27T03:51:12.742Z,16.3
2018-07-27T03:52:12.680Z,16.3
2018-07-27T03:53:13.036Z,16.2
2018-07-27T03:54:12.950Z,16.2
2018-07-27T03:55:12.846Z,16.2
2018-07-27T03:56:12.743Z,16.2
2018-07-27T03:57:12.666Z,16.2
2018-07-27T03:58:12.578Z,16.2
2018-07-27T03:59:12.484Z,16.1
2018-07-27T04:00:12.390Z,16.1
2018-07-27T04:01:12.290Z,16.1
2018-07-27T04:02:12.405Z,16.1
2018-07-27T04:03:12.962Z,16.1
2018-07-27T04:04:12.876Z,16.1
2018-07-27T04:05:12.785Z,16.1
2018-07-27T04:06:12.677Z,16.1
2018-07-27T04:07:12.636Z,16.1
2018-07-27T04:08:12.742Z,16.1
2018-07-27T04:09:12.643Z,16.1
2018-07-27T04:10:12.534Z,16
2018-07-27T04:11:12.477Z,16
2018-07-27T04:12:12.388Z,16
2018-07-27T04:13:12.748Z,16
2018-07-27T04:14:12.651Z,16
2018-07-27T04:15:12.561Z,16
2018-07-27T04:16:12.474Z,16
2018-07-27T04:17:12.389Z,16.1
2018-07-27T04:18:12.321Z,16.1
2018-07-27T04:19:12.237Z,16.2
2018-07-27T04:20:12.133Z,16.1
2018-07-27T04:21:12.037Z,16.2
2018-07-27T04:22:11.943Z,16.3
2018-07-27T04:23:12.311Z,16.2
2018-07-27T04:24:12.245Z,16.2
2018-07-27T04:25:12.149Z,16.2
2018-07-27T04:26:12.203Z,16.3
2018-07-27T04:27:12.193Z,16.2
2018-07-27T04:28:12.114Z,16.2
2018-07-27T04:29:12.037Z,16.3
2018-07-27T04:30:11.940Z,16.2
2018-07-27T04:31:11.849Z,16.3
2018-07-27T04:32:11.777Z,16.3
2018-07-27T04:33:12.109Z,16.3
2018-07-27T04:34:12.046Z,16.2
2018-07-27T04:35:11.957Z,16.2
2018-07-27T04:36:11.862Z,16.1
2018-07-27T04:37:11.753Z,16.1
2018-07-27T04:38:11.659Z,16.1
2018-07-27T04:39:11.587Z,16.1
2018-07-27T04:40:11.535Z,16.2
2018-07-27T04:41:11.428Z,16.1
2018-07-27T04:42:11.334Z,16.2
2018-07-27T04:43:11.707Z,16.2
2018-07-27T04:44:11.659Z,16.2
2018-07-27T04:45:11.571Z,16.2
2018-07-27T04:46:11.485Z,16.3
2018-07-27T04:47:11.391Z,16.2
2018-07-27T04:48:11.303Z,16.2
2018-07-27T04:49:11.196Z,16.3
2018-07-27T04:50:11.134Z,16.3
2018-07-27T04:51:11.059Z,16.3
2018-07-27T04:52:10.963Z,16.3
2018-07-27T04:53:11.327Z,16.2
2018-07-27T04:54:11.227Z,16.3
2018-07-27T04:55:11.133Z,16.3
2018-07-27T04:56:11.169Z,16.3
2018-07-27T04:57:11.257Z,16.3
2018-07-27T04:58:11.159Z,16.3
2018-07-27T04:59:11.090Z,16.4
2018-07-27T05:00:10.989Z,16.5
2018-07-27T05:01:10.918Z,16.6
2018-07-27T05:02:10.831Z,16.7
2018-07-27T05:03:11.192Z,16.8
2018-07-27T05:04:11.098Z,16.9
2018-07-27T05:05:11.011Z,16.9
2018-07-27T05:06:10.938Z,17
2018-07-27T05:07:10.858Z,17
2018-07-27T05:08:10.766Z,17
2018-07-27T05:09:10.693Z,17
2018-07-27T05:10:10.593Z,17.1
2018-07-27T05:11:10.517Z,17.1
2018-07-27T05:12:10.434Z,17.2
2018-07-27T05:13:10.774Z,17.2
2018-07-27T05:14:10.669Z,17.4
2018-07-27T05:15:10.566Z,17.4
2018-07-27T05:16:10.492Z,17.4
2018-07-27T05:17:10.395Z,17.5
2018-07-27T05:18:10.431Z,17.6
2018-07-27T05:19:10.560Z,17.7
2018-07-27T05:20:10.454Z,17.8
2018-07-27T05:21:10.389Z,17.9
2018-07-27T05:22:10.297Z,18
2018-07-27T05:23:10.638Z,18.2
2018-07-27T05:24:10.545Z,18.4
2018-07-27T05:25:10.454Z,18.5
2018-07-27T05:26:10.383Z,18.6
2018-07-27T05:27:10.294Z,18.7
2018-07-27T05:28:10.205Z,18.8
2018-07-27T05:29:10.116Z,19
2018-07-27T05:30:10.023Z,19.1
2018-07-27T05:31:09.927Z,19.3
2018-07-27T05:32:09.859Z,19.5
2018-07-27T05:33:10.198Z,19.6
2018-07-27T05:34:10.152Z,19.8
2018-07-27T05:35:10.057Z,20
2018-07-27T05:36:09.958Z,20.2
2018-07-27T05:37:09.853Z,20.5
2018-07-27T05:38:09.821Z,20.6
2018-07-27T05:39:09.720Z,20.7
2018-07-27T05:40:09.633Z,20.8
2018-07-27T05:41:09.550Z,20.8
2018-07-27T05:42:09.461Z,20.7
2018-07-27T05:43:09.809Z,20.8
2018-07-27T05:44:09.733Z,20.9
2018-07-27T05:45:09.642Z,21
2018-07-27T05:46:09.547Z,21.1
2018-07-27T05:47:09.619Z,21.1
2018-07-27T05:48:09.908Z,21.1
2018-07-27T05:49:09.869Z,21.1
2018-07-27T05:50:09.796Z,21.3
2018-07-27T05:51:09.688Z,21.5
2018-07-27T05:52:09.603Z,21.6
2018-07-27T05:53:10.194Z,21.7
2018-07-27T05:54:10.113Z,21.7
2018-07-27T05:55:10.015Z,21.8
2018-07-27T05:56:09.913Z,21.7
2018-07-27T05:57:09.820Z,21.7
2018-07-27T05:58:09.721Z,21.8
2018-07-27T05:59:09.731Z,21.9
2018-07-27T06:00:09.632Z,21.9
2018-07-27T06:01:09.686Z,21.8
2018-07-27T06:02:11.085Z,21.8
2018-07-27T06:03:11.820Z,22.1
2018-07-27T06:04:11.741Z,22.3
2018-07-27T06:05:11.665Z,22.3
2018-07-27T06:06:11.576Z,22.5
2018-07-27T06:07:11.483Z,22.5
2018-07-27T06:08:11.387Z,22.7
2018-07-27T06:09:12.315Z,22.8
2018-07-27T06:10:12.230Z,22.8
2018-07-27T06:11:12.309Z,22.7
2018-07-27T06:12:12.460Z,22.9
2018-07-27T06:13:12.810Z,23.1
2018-07-27T06:14:12.740Z,23
2018-07-27T06:15:12.645Z,23
2018-07-27T06:16:12.542Z,23.1
2018-07-27T06:17:12.456Z,23.3
2018-07-27T06:18:12.931Z,23.4
2018-07-27T06:19:13.748Z,23.5
2018-07-27T06:20:13.684Z,23.5
2018-07-27T06:21:13.587Z,23.6
2018-07-27T06:22:13.474Z,23.7
2018-07-27T06:23:13.832Z,23.8
2018-07-27T06:24:14.182Z,23.8
2018-07-27T06:25:14.681Z,24
2018-07-27T06:26:14.871Z,23.8
2018-07-27T06:27:14.785Z,23.8
2018-07-27T06:28:14.945Z,24
2018-07-27T06:29:15.474Z,24.1
2018-07-27T06:30:15.771Z,24.1
2018-07-27T06:31:15.698Z,24.3
2018-07-27T06:32:15.615Z,24.3
2018-07-27T06:33:15.981Z,24.4
2018-07-27T06:34:15.910Z,24.4
2018-07-27T06:35:15.842Z,24.3
2018-07-27T06:36:15.747Z,24.1
2018-07-27T06:37:15.653Z,24.3
2018-07-27T06:38:15.628Z,24.2
2018-07-27T06:39:15.840Z,24.6
2018-07-27T06:40:16.115Z,24.8
2018-07-27T06:41:16.036Z,24.9
2018-07-27T06:42:18.929Z,25.1
2018-07-27T06:43:19.329Z,24.9
2018-07-27T06:44:19.242Z,25.1
2018-07-27T06:45:19.468Z,25
2018-07-27T06:46:19.657Z,25
2018-07-27T06:47:19.606Z,25.2
2018-07-27T06:48:19.530Z,25.4
2018-07-27T06:49:19.425Z,25.4
2018-07-27T06:50:22.105Z,25.1
2018-07-27T06:51:22.006Z,25
2018-07-27T06:52:24.801Z,25.2
2018-07-27T06:53:25.363Z,25.6
2018-07-27T06:54:25.274Z,25.7
2018-07-27T06:55:25.233Z,25.8
2018-07-27T06:56:25.136Z,26
2018-07-27T06:57:25.035Z,25.9
2018-07-27T06:58:25.000Z,25.6
2018-07-27T06:59:24.900Z,25.3
2018-07-27T07:00:24.814Z,25.4
2018-07-27T07:01:24.761Z,25.6
2018-07-27T07:02:24.684Z,25.4
2018-07-27T07:03:25.211Z,25.7
2018-07-27T07:04:25.280Z,25.6
2018-07-27T07:05:25.224Z,25.5
2018-07-27T07:06:25.140Z,25.4
2018-07-27T07:07:25.042Z,25.7
2018-07-27T07:08:27.678Z,26
2018-07-27T07:09:27.588Z,26
2018-07-27T07:10:27.519Z,25.9
2018-07-27T07:11:27.428Z,25.7
2018-07-27T07:12:27.358Z,26
2018-07-27T07:13:27.691Z,26.1
2018-07-27T07:14:27.821Z,26.1
2018-07-27T07:15:28.059Z,26.1
2018-07-27T07:16:27.959Z,26.2
2018-07-27T07:17:27.860Z,26.3
2018-07-27T07:18:27.766Z,26.2
2018-07-27T07:19:27.684Z,26.3
2018-07-27T07:20:27.589Z,26.6
2018-07-27T07:21:27.518Z,26.6
2018-07-27T07:22:27.420Z,26.8
2018-07-27T07:23:28.042Z,27.1
2018-07-27T07:24:27.947Z,27
2018-07-27T07:25:28.376Z,27.1
2018-07-27T07:26:29.238Z,27.2
2018-07-27T07:27:29.150Z,27.3
2018-07-27T07:28:29.065Z,27.2
2018-07-27T07:29:28.976Z,27.3
2018-07-27T07:30:28.879Z,27.3
2018-07-27T07:31:28.809Z,27.2
2018-07-27T07:32:28.715Z,27.4
2018-07-27T07:33:29.038Z,27.2
2018-07-27T07:34:28.934Z,27.3
2018-07-27T07:35:28.848Z,26.9
2018-07-27T07:36:28.764Z,26.8
2018-07-27T07:37:28.714Z,26.8
2018-07-27T07:38:28.633Z,26.9
2018-07-27T07:39:28.537Z,26.8
2018-07-27T07:40:28.441Z,26.6
2018-07-27T07:41:28.375Z,26.7
2018-07-27T07:42:28.292Z,26.8
2018-07-27T07:43:28.658Z,26.6
2018-07-27T07:44:28.602Z,26.9
2018-07-27T07:45:28.513Z,27.1
2018-07-27T07:46:28.435Z,27.1
2018-07-27T07:47:28.369Z,27.2
2018-07-27T07:48:28.267Z,27.3
2018-07-27T07:49:28.372Z,27.2
2018-07-27T07:50:28.617Z,27.3
2018-07-27T07:51:28.538Z,27.1
2018-07-27T07:52:28.470Z,27
2018-07-27T07:53:28.824Z,27.1
2018-07-27T07:54:28.748Z,26.9
2018-07-27T07:55:28.647Z,27
2018-07-27T07:56:28.577Z,27.3
2018-07-27T07:57:28.495Z,27.4
2018-07-27T07:58:28.472Z,27.3
2018-07-27T07:59:28.503Z,27.2
2018-07-27T08:00:28.415Z,27.2
2018-07-27T08:01:28.314Z,27.2
2018-07-27T08:02:28.263Z,27.3
2018-07-27T08:03:28.634Z,27.5
2018-07-27T08:04:28.544Z,27.7
2018-07-27T08:05:28.551Z,27.7
2018-07-27T08:06:28.551Z,27.6
2018-07-27T08:07:28.451Z,27.5
2018-07-27T08:08:28.381Z,27.6
2018-07-27T08:09:28.291Z,27.4
2018-07-27T08:10:28.214Z,27.3
2018-07-27T08:11:28.188Z,27.6
2018-07-27T08:12:28.086Z,27.9
2018-07-27T08:13:28.465Z,28.2
2018-07-27T08:14:28.369Z,28.3
2018-07-27T08:15:28.281Z,28.6
2018-07-27T08:16:28.210Z,28.4
2018-07-27T08:17:28.155Z,28.3
2018-07-27T08:18:28.160Z,28.4
2018-07-27T08:19:28.099Z,28.4
2018-07-27T08:20:28.003Z,28.3
2018-07-27T08:21:27.940Z,28.3
2018-07-27T08:22:27.851Z,28.1
2018-07-27T08:23:28.461Z,27.9
2018-07-27T08:24:28.384Z,28
2018-07-27T08:25:28.287Z,28.1
2018-07-27T08:26:28.202Z,28.2
2018-07-27T08:27:28.111Z,27.9
2018-07-27T08:28:28.022Z,27.6
2018-07-27T08:29:27.957Z,27.8
2018-07-27T08:30:27.864Z,27.7
2018-07-27T08:31:27.767Z,27.5
2018-07-27T08:32:27.888Z,26.7
2018-07-27T08:33:28.227Z,26.7
2018-07-27T08:34:28.128Z,26.9
2018-07-27T08:35:28.293Z,26.9
2018-07-27T08:36:28.210Z,27.2
2018-07-27T08:37:28.123Z,26.9
2018-07-27T08:38:28.059Z,26.7
2018-07-27T08:39:27.956Z,26.8
2018-07-27T08:40:27.890Z,26.8
2018-07-27T08:41:27.789Z,27
2018-07-27T08:42:27.694Z,27.3
2018-07-27T08:43:28.073Z,27.4
2018-07-27T08:44:27.984Z,27.7
2018-07-27T08:45:27.916Z,27.7
2018-07-27T08:46:27.881Z,27.8
2018-07-27T08:47:27.824Z,28
2018-07-27T08:48:27.737Z,28
2018-07-27T08:49:27.671Z,27.9
2018-07-27T08:50:27.600Z,27.8
2018-07-27T08:51:27.524Z,27.7
2018-07-27T08:52:27.418Z,27.6
2018-07-27T08:53:27.851Z,27.7
2018-07-27T08:54:27.762Z,27.7
2018-07-27T08:55:27.692Z,27.7
2018-07-27T08:56:27.594Z,28
2018-07-27T08:57:27.521Z,28.2
2018-07-27T08:58:27.422Z,28.4
2018-07-27T08:59:27.341Z,28
2018-07-27T09:00:27.265Z,28
2018-07-27T09:01:27.222Z,27.8
2018-07-27T09:02:27.144Z,28
2018-07-27T09:03:27.516Z,28.1
2018-07-27T09:04:27.463Z,28.1
2018-07-27T09:05:27.354Z,28
2018-07-27T09:06:27.504Z,27.8
2018-07-27T09:07:27.429Z,27.8
2018-07-27T09:08:27.339Z,28.1
2018-07-27T09:09:27.246Z,27.8
2018-07-27T09:10:27.172Z,27.7
2018-07-27T09:11:27.080Z,27.9
2018-07-27T09:12:27.055Z,27.8
2018-07-27T09:13:27.428Z,27.7
2018-07-27T09:14:27.358Z,28
2018-07-27T09:15:27.291Z,28.4
2018-07-27T09:16:27.200Z,28.5
2018-07-27T09:17:27.441Z,28.5
2018-07-27T09:18:27.927Z,28.3
2018-07-27T09:19:27.853Z,28.4
2018-07-27T09:20:27.769Z,28.5
2018-07-27T09:21:27.715Z,28.4
2018-07-27T09:22:27.658Z,28.3
2018-07-27T09:23:28.043Z,28.3
2018-07-27T09:24:28.794Z,28.3
2018-07-27T09:25:29.504Z,28
2018-07-27T09:26:29.411Z,28
2018-07-27T09:27:29.347Z,28.1
2018-07-27T09:28:29.273Z,28.1
2018-07-27T09:29:29.208Z,28.4
2018-07-27T09:30:30.151Z,28.4
2018-07-27T09:31:30.069Z,28.3
2018-07-27T09:32:29.992Z,28.1
2018-07-27T09:33:30.358Z,27.8
2018-07-27T09:34:30.290Z,27.9
2018-07-27T09:35:30.417Z,28
2018-07-27T09:36:33.590Z,28
2018-07-27T09:37:33.536Z,28.1
2018-07-27T09:38:33.465Z,28.3
2018-07-27T09:39:36.160Z,28.1
2018-07-27T09:40:36.261Z,27.9
2018-07-27T09:41:36.456Z,27.9
2018-07-27T09:42:36.413Z,27.8
2018-07-27T09:43:36.885Z,27.7
2018-07-27T09:44:36.790Z,27.8
2018-07-27T09:45:36.719Z,27.9
2018-07-27T09:46:36.882Z,28
2018-07-27T09:47:37.320Z,28
2018-07-27T09:48:37.228Z,28.1
2018-07-27T09:49:37.153Z,28.1
2018-07-27T09:50:37.080Z,28.1
2018-07-27T09:51:37.249Z,27.8
2018-07-27T09:52:38.146Z,28
2018-07-27T09:53:38.537Z,28
2018-07-27T09:54:38.491Z,27.9
2018-07-27T09:55:38.419Z,27.9
2018-07-27T09:56:38.325Z,27.7
2018-07-27T09:57:38.240Z,27.4
2018-07-27T09:58:38.167Z,27.3
2018-07-27T09:59:38.324Z,27.3
2018-07-27T10:00:38.268Z,27.6
2018-07-27T10:01:40.771Z,27.7
2018-07-27T10:02:44.818Z,27.7
2018-07-27T10:03:47.968Z,27.8
2018-07-27T10:04:47.891Z,28
2018-07-27T10:05:48.020Z,28.1
2018-07-27T10:06:48.222Z,28.2
2018-07-27T10:07:48.210Z,28.3
2018-07-27T10:08:48.139Z,27.9
2018-07-27T10:09:48.063Z,27.9
2018-07-27T10:10:47.976Z,27.9
2018-07-27T10:11:47.905Z,27.9
2018-07-27T10:12:47.902Z,27.7
2018-07-27T10:13:48.476Z,27.8
2018-07-27T10:14:48.390Z,28
2018-07-27T10:15:48.316Z,27.8
2018-07-27T10:16:48.285Z,27.9
2018-07-27T10:17:48.198Z,28
2018-07-27T10:18:48.133Z,28
2018-07-27T10:19:48.094Z,28
2018-07-27T10:20:48.018Z,28
2018-07-27T10:21:48.207Z,28.1
2018-07-27T10:22:48.110Z,28.1
2018-07-27T10:23:48.744Z,27.8
2018-07-27T10:24:48.664Z,27.4
2018-07-27T10:25:49.051Z,27.4
2018-07-27T10:26:48.974Z,27.6
2018-07-27T10:27:49.110Z,27.6
2018-07-27T10:28:49.061Z,27.8
2018-07-27T10:29:49.019Z,27.9
2018-07-27T10:30:49.009Z,27.9
2018-07-27T10:31:48.916Z,28.1
2018-07-27T10:32:48.840Z,28.2
2018-07-27T10:33:49.203Z,28
2018-07-27T10:34:49.140Z,28
2018-07-27T10:35:50.046Z,28
2018-07-27T10:36:49.977Z,27.8
2018-07-27T10:37:49.892Z,27.6
2018-07-27T10:38:49.907Z,27.4
2018-07-27T10:39:49.913Z,27.5
2018-07-27T10:40:49.804Z,27.4
2018-07-27T10:41:49.980Z,27.2
2018-07-27T10:42:49.891Z,27.3
2018-07-27T10:43:50.306Z,27.2
2018-07-27T10:44:50.341Z,27.2
2018-07-27T10:45:50.502Z,27.3
2018-07-27T10:46:50.426Z,27.3
2018-07-27T10:47:50.350Z,27.5
2018-07-27T10:48:50.287Z,27.6
2018-07-27T10:49:50.448Z,27.7
2018-07-27T10:50:50.443Z,27.3
2018-07-27T10:51:50.368Z,27.3
2018-07-27T10:52:50.377Z,27.1
2018-07-27T10:53:51.803Z,27.3
2018-07-27T10:54:51.764Z,27.1
2018-07-27T10:55:51.744Z,27
2018-07-27T10:56:51.654Z,27.1
2018-07-27T10:57:52.027Z,27.2
2018-07-27T10:58:51.943Z,27.1
2018-07-27T10:59:51.879Z,27.2
2018-07-27T11:00:51.861Z,27.3
2018-07-27T11:01:51.835Z,27.3
2018-07-27T11:02:51.991Z,27.1
2018-07-27T11:03:52.595Z,27
2018-07-27T11:04:55.082Z,27.1
2018-07-27T11:05:55.041Z,27.3
2018-07-27T11:06:54.968Z,27.4
2018-07-27T11:07:54.874Z,27.7
2018-07-27T11:08:54.970Z,27.7
2018-07-27T11:09:55.500Z,27.8
2018-07-27T11:10:55.615Z,27.4
2018-07-27T11:11:55.574Z,27.1
2018-07-27T11:12:55.523Z,27.2
2018-07-27T11:13:55.894Z,27.3
2018-07-27T11:14:55.835Z,27.1
2018-07-27T11:15:55.749Z,27.2
2018-07-27T11:16:55.861Z,27.1
2018-07-27T11:17:56.179Z,26.9
2018-07-27T11:18:56.285Z,27.1
2018-07-27T11:19:56.206Z,27
2018-07-27T11:20:57.140Z,26.8
2018-07-27T11:21:57.063Z,26.7
2018-07-27T11:22:57.020Z,26.8
2018-07-27T11:23:57.429Z,26.7
2018-07-27T11:24:57.342Z,26.7
2018-07-27T11:25:57.274Z,27
2018-07-27T11:26:57.234Z,27.1
2018-07-27T11:27:57.148Z,27.2
2018-07-27T11:28:57.061Z,27.2
2018-07-27T11:29:56.983Z,27.3
2018-07-27T11:30:57.100Z,27.4
2018-07-27T11:31:57.156Z,27.4
2018-07-27T11:32:57.088Z,27.4
2018-07-27T11:33:57.459Z,27.4
2018-07-27T11:34:57.603Z,27.4
2018-07-27T11:35:58.526Z,27.2
2018-07-27T11:37:01.578Z,27
2018-07-27T11:38:01.786Z,27
2018-07-27T11:39:01.726Z,26.9
2018-07-27T11:40:01.699Z,26.9
2018-07-27T11:41:01.832Z,26.8
2018-07-27T11:42:01.746Z,26.8
2018-07-27T11:43:01.732Z,26.8
2018-07-27T11:44:02.106Z,26.7
2018-07-27T11:45:03.043Z,26.6
2018-07-27T11:46:03.015Z,26.8
2018-07-27T11:47:02.941Z,26.7
2018-07-27T11:48:03.121Z,26.8
2018-07-27T11:49:03.031Z,26.8
2018-07-27T11:50:02.951Z,26.7
2018-07-27T11:51:02.920Z,26.8
2018-07-27T11:52:02.840Z,26.9
2018-07-27T11:53:02.800Z,26.8
2018-07-27T11:54:03.206Z,26.9
2018-07-27T11:55:03.117Z,26.9
2018-07-27T11:56:03.068Z,27.1
2018-07-27T11:57:03.002Z,27.1
2018-07-27T11:58:02.957Z,27.1
2018-07-27T11:59:02.898Z,26.8
2018-07-27T12:00:03.831Z,26.5
2018-07-27T12:01:03.741Z,26.6
2018-07-27T12:02:06.231Z,26.7
2018-07-27T12:03:06.160Z,26.7
2018-07-27T12:04:06.544Z,26.9
2018-07-27T12:05:06.458Z,26.9
2018-07-27T12:06:06.391Z,27
2018-07-27T12:07:06.490Z,27
2018-07-27T12:08:10.605Z,27
2018-07-27T12:09:10.558Z,27
2018-07-27T12:10:10.483Z,27
2018-07-27T12:11:10.386Z,26.8
2018-07-27T12:12:10.286Z,26.8
2018-07-27T12:13:10.193Z,26.9
2018-07-27T12:14:11.678Z,26.9
2018-07-27T12:15:14.431Z,26.9
2018-07-27T12:16:15.862Z,26.8
2018-07-27T12:17:15.822Z,26.8
2018-07-27T12:18:15.752Z,26.9
2018-07-27T12:19:15.701Z,26.9
2018-07-27T12:20:15.633Z,26.9
2018-07-27T12:21:16.076Z,26.8
2018-07-27T12:22:16.789Z,26.7
2018-07-27T12:23:16.703Z,26.5
2018-07-27T12:24:17.096Z,26.5
2018-07-27T12:25:17.239Z,26.5
2018-07-27T12:26:17.372Z,26.6
2018-07-27T12:27:17.283Z,26.7
2018-07-27T12:28:17.209Z,26.5
2018-07-27T12:29:17.110Z,26.5
2018-07-27T12:30:17.036Z,26.7
2018-07-27T12:31:17.180Z,26.8
2018-07-27T12:32:17.088Z,26.7
2018-07-27T12:33:17.009Z,26.8
2018-07-27T12:34:17.568Z,26.8
2018-07-27T12:35:17.490Z,26.8
2018-07-27T12:36:17.390Z,26.8
2018-07-27T12:37:20.095Z,26.9
2018-07-27T12:38:20.006Z,26.9
2018-07-27T12:39:19.915Z,26.8
2018-07-27T12:40:19.847Z,26.8
2018-07-27T12:41:19.771Z,26.8
2018-07-27T12:42:19.678Z,26.7
2018-07-27T12:43:22.177Z,26.7
2018-07-27T12:44:22.531Z,26.4
2018-07-27T12:45:22.471Z,26.2
2018-07-27T12:46:23.048Z,26.2
2018-07-27T12:47:22.952Z,26.4
2018-07-27T12:48:22.857Z,26.6
2018-07-27T12:49:22.771Z,26.6
2018-07-27T12:50:22.714Z,26.5
2018-07-27T12:51:25.694Z,26.5
2018-07-27T12:52:26.069Z,26.7
2018-07-27T12:53:25.968Z,26.7
2018-07-27T12:54:26.909Z,26.7
2018-07-27T12:55:26.845Z,26.7
2018-07-27T12:56:26.755Z,26.7
2018-07-27T12:57:26.701Z,26.8
2018-07-27T12:58:26.606Z,26.8
2018-07-27T12:59:26.773Z,26.8
2018-07-27T13:00:26.913Z,26.7
2018-07-27T13:01:26.842Z,26.6
2018-07-27T13:02:27.743Z,26.5
2018-07-27T13:03:27.644Z,26.6
2018-07-27T13:04:31.007Z,26.6
2018-07-27T13:05:31.149Z,26.7
2018-07-27T13:06:31.356Z,26.7
2018-07-27T13:07:31.495Z,26.8
2018-07-27T13:08:31.428Z,26.9
2018-07-27T13:09:31.338Z,26.8
2018-07-27T13:10:31.252Z,26.8
2018-07-27T13:11:31.401Z,26.8
2018-07-27T13:12:31.309Z,26.7
2018-07-27T13:13:31.220Z,26.6
2018-07-27T13:15:31.660Z,26.6
2018-07-27T13:16:31.817Z,26.7
2018-07-27T13:17:31.713Z,26.6
2018-07-27T13:18:31.622Z,26.6
2018-07-27T13:19:31.757Z,26.6
2018-07-27T13:20:31.673Z,26.7
2018-07-27T13:21:31.590Z,26.8
2018-07-27T13:22:35.339Z,26.8
2018-07-27T13:23:35.371Z,26.8
2018-07-27T13:25:03.201Z,26.6
2018-07-27T13:27:22.730Z,26.6
2018-07-27T13:28:22.889Z,26.6